Weather Models
Both GFS & NAM
00z 06z 12z 18z
24hr Precip
00z 06z 12z 18z
36hr Simulated radar
00z 06z 12z 18z
SKEWT Soundings
00z 12z
Current Conditions (Updated 9:35am on 5/1/16)
Temperature
 49°
-0.27
55°  
49°  
0
10
20
30
40
50
60
70
80
90
100
Dew Point
43°
44°  
36°  
-20
-10
0
10
20
30
40
50
60
70
80
Wind Chill
49°
55°  
46°  
-20
-10
0
10
20
30
40
50
60
70
80
Wind Chill
Humidity
80%
80% 
51% 
0
10
20
30
40
50
60
70
80
90
100
Barometer
30.22
   Steady
30.25  
30.19  
28.00
28.30
28.60
28.90
29.20
29.50
29.80
30.10
30.40
30.70
31.00
Temperature
Dew Point
Humidity
Pressure
Wind
0mph
 SW
Daily Rain
.00
.05
.10
.15
.20
.25
.30
.35
.40
.45
.50
Rain Today
 0.25" 
Month Rain
0.00
0.20
0.40
0.60
0.80
1.00
1.20
1.40
1.60
1.80
2.00
Month Rain
 0.25" 
Year Rain
0.00
2.50
5.00
7.50
10.00
12.50
15.00
17.50
20.00
22.50
25.00
Year Rain
 10.24" 
Sun & Moon Data
Sunrise 5:58am
Sunset 7:54pm
Moonrise 2:49am
Moonset 2:02pm
Moon % 41%
Other Rain Data
Past Hour 0.07 Past 24 Hours 0.25
Past 3 Hours 0.22 Past 7 Days 0.32
Past 6 Hours 0.25
Cloud Height
1475


Current Front Map
Current Satellite map
7 Day Forecast
NWS Forecast for Philadelphia PA
National Weather Service Forecast for: Philadelphia PA
Issued by: National Weather Service Philadelphia, PA
Updated: 6:28 am EDT May 1, 2016

Philadelphia
 
Today

Today: Periods of rain before 2pm, then periods of showers and possibly a thunderstorm after 2pm.  High near 56. East wind around 8 mph.  Chance of precipitation is 90%. New rainfall amounts between a quarter and half of an inch possible.
Showers

Tonight

Tonight: Showers likely and possibly a thunderstorm.  Cloudy, with a low around 50. East wind around 6 mph.  Chance of precipitation is 70%. New precipitation amounts between a quarter and half of an inch possible.
Showers
Likely

Monday

Monday: A chance of showers.  Cloudy, then gradually becoming mostly sunny, with a high near 71. East wind 5 to 8 mph becoming west in the afternoon.  Chance of precipitation is 50%. New precipitation amounts of less than a tenth of an inch possible.
Chance
Showers

Monday
Night
Monday Night: A chance of showers, mainly after midnight.  Mostly cloudy, with a low around 50. Northwest wind 6 to 8 mph becoming north after midnight.  Chance of precipitation is 50%. New precipitation amounts of less than a tenth of an inch possible.
Slight Chance
Showers then
Chance
Showers
Tuesday

Tuesday: Showers likely.  Mostly cloudy, with a high near 63. Northeast wind 3 to 6 mph.  Chance of precipitation is 60%. New precipitation amounts of less than a tenth of an inch possible.
Showers
Likely

Tuesday
Night
Tuesday Night: Mostly cloudy, with a low around 50.
Mostly Cloudy

Wednesday

Wednesday: Partly sunny, with a high near 69.
Partly Sunny

Wednesday
Night
Wednesday Night: A chance of showers.  Mostly cloudy, with a low around 51. Chance of precipitation is 40%.
Chance
Showers

Thursday

Thursday: A chance of showers.  Mostly cloudy, with a high near 66. Chance of precipitation is 40%.
Chance
Showers

Hi 56 °F Lo 50 °F Hi 71 °F Lo 50 °F Hi 63 °F Lo 50 °F Hi 69 °F Lo 51 °F Hi 66 °F

 

Today
 
Periods of rain before 2pm, then periods of showers and possibly a thunderstorm after 2pm. High near 56. East wind around 8 mph. Chance of precipitation is 90%. New rainfall amounts between a quarter and half of an inch possible.
Tonight
 
Showers likely and possibly a thunderstorm. Cloudy, with a low around 50. East wind around 6 mph. Chance of precipitation is 70%. New precipitation amounts between a quarter and half of an inch possible.
Monday
 
A chance of showers. Cloudy, then gradually becoming mostly sunny, with a high near 71. East wind 5 to 8 mph becoming west in the afternoon. Chance of precipitation is 50%. New precipitation amounts of less than a tenth of an inch possible.
Monday Night
 
A chance of showers, mainly after midnight. Mostly cloudy, with a low around 50. Northwest wind 6 to 8 mph becoming north after midnight. Chance of precipitation is 50%. New precipitation amounts of less than a tenth of an inch possible.
Tuesday
 
Showers likely. Mostly cloudy, with a high near 63. Northeast wind 3 to 6 mph. Chance of precipitation is 60%. New precipitation amounts of less than a tenth of an inch possible.
Tuesday Night
 
Mostly cloudy, with a low around 50.
Wednesday
 
Partly sunny, with a high near 69.
Wednesday Night
 
A chance of showers. Mostly cloudy, with a low around 51. Chance of precipitation is 40%.
Thursday
 
A chance of showers. Mostly cloudy, with a high near 66. Chance of precipitation is 40%.
Thursday Night
 
A chance of showers. Mostly cloudy, with a low around 50. Chance of precipitation is 40%.
Friday
 
A chance of showers. Partly sunny, with a high near 66. Chance of precipitation is 30%.
Friday Night
 
A chance of showers. Mostly cloudy, with a low around 49. Chance of precipitation is 30%.
Saturday
 
A chance of showers. Mostly cloudy, with a high near 66. Chance of precipitation is 30%.

 

Forecast from NOAA-NWS for Philadelphia PA.

Area Weather Current Conditions
Nearby METAR Reports

KPHL - Philadelphia, Pennsylvania
Updated: Sun, 01-May-2016 9:03am EDT
Light rain, Overcast
Light rain, Overcast
 Wind from E
Wind: E 8 mph , 13 km/h
Temperature: 46°F , 8°C
Wind Chill: 42°F , 6°C
Dew Point: 43°F , 6°C
Humidity: 87%
Barometer: 30.20 inHg , 1022.7 hPa
Summary: Light Rain
Clouds: Overcast
Visibility: 6 miles , 10 km
Cloud details: Few Clouds 700 ft
Partly Cloudy 1500 ft
Overcast 3800 ft
2016/05/01 13:03 KPHL 011303Z 09007KT 6SM -RA FEW007 SCT015 OVC038 08/06 A3020 RMK AO2 P0001 T00830056
KMPO - Mt. Pocono, Pennsylvania
Updated: Sun, 01-May-2016 9:23am EDT
Light rain, Overcast
Light rain, Overcast
 Wind from SE
Wind: SE 13 mph , 20 km/h
Temperature: 36°F , 2°C
Wind Chill: 27°F , -3°C
Dew Point: 34°F , 1°C
Humidity: 93%
Barometer: 30.12 inHg , 1020 hPa
Summary: Light Rain
Clouds: Overcast
Visibility: 8 miles , 13 km
Cloud details: Mostly Cloudy 500 ft
Overcast 1900 ft
2016/05/01 13:23 KMPO 011323Z AUTO 13011KT 8SM -RA BKN005 OVC019 02/01 A3012 RMK AO2 CIG 003V008 P0002 T00220011 TSNO
 
KACY - Atlantic City, New Jersey
Updated: Sun, 01-May-2016 9:20am EDT
Light rain, Mist, Overcast
Light rain, Mist, Overcast
 Wind from E
Wind: E 7 mph , 11 km/h
Temperature: 50°F , 10°C
Wind Chill: 47°F , 8°C
Dew Point: 48°F , 9°C
Humidity: 94%
Barometer: 30.19 inHg , 1022.4 hPa
Summary: Light rain, Mist
Clouds: Overcast
Visibility: 6 miles , 10 km
Cloud details: Few Clouds 600 ft
Overcast 4400 ft
2016/05/01 13:20 KACY 011320Z 09006KT 6SM -RA BR FEW006 OVC044 10/09 A3019 RMK AO2 P0002 T01000089
KMIV - Millville, New Jersey
Updated: Sun, 01-May-2016 9:31am EDT
Light rain, Mist, Overcast
Light rain, Mist, Overcast
 Wind from ESE
Wind: ESE 8 mph , 13 km/h
Temperature: 48°F , 9°C
Wind Chill: 44°F , 7°C
Dew Point: 46°F , 8°C
Humidity: 94%
Barometer: 30.18 inHg , 1022 hPa
Summary: Light rain, Mist
Clouds: Overcast
Visibility: 4 miles , 6 km
Cloud details: Few Clouds 800 ft
Mostly Cloudy 3800 ft
Overcast 6500 ft
2016/05/01 13:31 KMIV 011331Z AUTO 11007KT 4SM -RA BR FEW008 BKN038 OVC065 09/08 A3018 RMK AO2 P0004 T00940083
 
KWWD - Wildwood, New Jersey
Updated: Sun, 01-May-2016 9:15am EDT
Overcast
Overcast
 Wind from ESE
Wind: ESE 6 mph , 9 km/h
Temperature: 50°F , 10°C
Wind Chill: 48°F , 9°C
Dew Point: 46°F , 8°C
Humidity: 88%
Barometer: 30.20 inHg , 1022.7 hPa
Clouds: Overcast
Visibility: 8 miles , 13 km
Cloud details: Mostly Cloudy 4000 ft
Overcast 4800 ft
2016/05/01 13:15 KWWD 011315Z AUTO 11005KT 8SM BKN040 OVC048 10/08 A3020 RMK AO1 P0001
KDOV - Dover Afb, Delaware
Updated: Sun, 01-May-2016 9:30am EDT
Light rain, Mist, Overcast
Light rain, Mist, Overcast
 Wind from E
Wind: E 10 mph , 17 km/h
Temperature: 52°F , 11°C
Dew Point: 52°F , 11°C
Humidity: 100%
Barometer: 30.15 inHg , 1021 hPa
Summary: Light rain, Mist
Clouds: Overcast
Visibility: 5 miles , 8 km
Cloud details: Partly Cloudy 1100 ft
Mostly Cloudy 1600 ft
Overcast 3400 ft
2016/05/01 13:30 KDOV 011330Z AUTO 10009KT 5SM -RA BR SCT011 BKN016 OVC034 11/11 A3015 RMK AO2 VISNO RWY19 CHINO RWY19 $
Severe Weather Map
Recent Forum Post
[Philadelphia] 2015 -2016 Winter snow forecast by JC April 19, 2016, 09:42:40 AM
[Philadelphia] Latest Models on Weekend Storm (Photos) by JC January 23, 2016, 12:01:03 PM
[Philadelphia] Possible large snow storm for end of week ? by JC January 21, 2016, 09:17:47 AM
[Philadelphia] El Nino! by vicente6 September 16, 2015, 01:57:08 AM
[Philadelphia] Early prediction for this winter? by xyonist February 19, 2015, 06:27:46 PM
[Philadelphia] Snow Storm 1/26 by JC January 28, 2015, 10:33:24 AM
[Philadelphia] Next 7 days by JC January 22, 2015, 01:40:35 AM
[Philadelphia] 2014 - 2015 winter snow forecast by xyonist November 25, 2014, 03:01:56 PM